Time;durP1;ratioP1;P1;durP2;ratioP2;P2;SDS_P1;SDS_P2;PMS_P1;PMS_P2;Temp;Humidity;BMP_temperature;BMP_pressure;BME280_temperature;BME280_humidity;BME280_pressure;Samples;Min_cycle;Max_cycle;Signal;HPM_P1;HPM_P2
2021/09/18 00:01:14;;;;;;;0.30;0.30;;;14.20;99.90;;;;;;4400353;32;20535;-67
2021/09/18 00:03:39;;;;;;;0.28;0.28;;;14.30;99.90;;;;;;4399144;32;20366;-66
2021/09/18 00:06:05;;;;;;;0.30;0.30;;;14.30;99.90;;;;;;4386776;32;20069;-66
2021/09/18 00:08:30;;;;;;;0.30;0.30;;;14.30;99.90;;;;;;4399825;32;20456;-66
2021/09/18 00:10:56;;;;;;;0.30;0.30;;;14.20;99.90;;;;;;4399236;32;20062;-67
2021/09/18 00:13:21;;;;;;;0.30;0.30;;;14.10;99.90;;;;;;4399541;32;20078;-66
2021/09/18 00:15:47;;;;;;;0.40;0.40;;;14.20;99.90;;;;;;4399930;32;20125;-66
2021/09/18 00:18:12;;;;;;;0.30;0.30;;;14.20;99.90;;;;;;4400712;32;20129;-67
2021/09/18 00:20:38;;;;;;;0.30;0.30;;;14.10;99.90;;;;;;4399978;32;20153;-67
2021/09/18 00:23:03;;;;;;;0.30;0.30;;;14.10;99.90;;;;;;4399969;32;20136;-67
2021/09/18 00:25:29;;;;;;;0.30;0.30;;;14.10;99.90;;;;;;4398737;32;20086;-67
2021/09/18 00:27:54;;;;;;;0.25;0.25;;;14.10;99.90;;;;;;4398556;32;20066;-66
2021/09/18 00:30:20;;;;;;;0.30;0.30;;;14.10;99.90;;;;;;4385338;32;20499;-67
2021/09/18 00:32:45;;;;;;;0.32;0.32;;;14.10;99.90;;;;;;4398782;32;20512;-66
2021/09/18 00:35:11;;;;;;;0.30;0.30;;;14.10;99.90;;;;;;4397997;32;20105;-66
2021/09/18 00:37:37;;;;;;;2.75;1.73;;;14.10;99.90;;;;;;4383727;32;20074;-66
2021/09/18 00:40:05;;;;;;;0.30;0.30;;;14.10;99.90;;;;;;4371110;32;20071;-67
2021/09/18 00:42:30;;;;;;;0.20;0.20;;;14.10;99.90;;;;;;4384108;32;20082;-66
2021/09/18 00:44:56;;;;;;;0.55;0.43;;;14.10;99.90;;;;;;4384861;32;20074;-66
2021/09/18 00:47:21;;;;;;;0.20;0.20;;;14.20;99.90;;;;;;4384422;32;20405;-66
2021/09/18 00:49:47;;;;;;;0.30;0.30;;;14.10;99.90;;;;;;4383225;32;20095;-66
2021/09/18 00:52:18;;;;;;;0.30;0.30;;;14.10;99.90;;;;;;4383478;32;20095;-66
2021/09/18 00:54:46;;;;;;;0.40;0.40;;;14.10;99.90;;;;;;4384635;32;20075;-66
2021/09/18 00:57:11;;;;;;;0.30;0.30;;;14.10;99.90;;;;;;4387223;32;20065;-66
2021/09/18 00:59:37;;;;;;;0.25;0.25;;;14.20;99.90;;;;;;4384545;32;20124;-66
2021/09/18 01:02:02;;;;;;;0.40;0.40;;;14.20;99.90;;;;;;4399496;32;20537;-66
2021/09/18 01:04:28;;;;;;;0.30;0.30;;;14.20;99.90;;;;;;4399690;32;20078;-66
2021/09/18 01:06:53;;;;;;;0.40;0.40;;;14.20;99.90;;;;;;4398447;32;20519;-66
2021/09/18 01:09:20;;;;;;;0.20;0.20;;;14.10;99.90;;;;;;4399562;32;20507;-67
2021/09/18 01:11:46;;;;;;;0.30;0.30;;;14.10;99.90;;;;;;4384549;32;20499;-66
2021/09/18 01:14:11;;;;;;;0.30;0.30;;;14.10;99.90;;;;;;4384657;32;20066;-66
2021/09/18 01:16:37;;;;;;;0.20;0.20;;;14.10;99.90;;;;;;4399091;32;20087;-66
2021/09/18 01:19:02;;;;;;;0.30;0.30;;;14.10;99.90;;;;;;4399475;32;20062;-66
2021/09/18 01:21:28;;;;;;;0.60;0.60;;;14.10;99.90;;;;;;4398902;32;20058;-66
2021/09/18 01:23:54;;;;;;;0.30;0.30;;;14.10;99.90;;;;;;4399172;32;20170;-66
2021/09/18 01:26:38;;;;;;;0.43;0.43;;;14.00;99.90;;;;;;4398817;32;20086;-66
2021/09/18 01:29:05;;;;;;;0.30;0.30;;;14.00;99.90;;;;;;4397838;32;20090;-66
2021/09/18 01:31:39;;;;;;;0.30;0.30;;;14.00;99.90;;;;;;4397987;32;20065;-66
2021/09/18 01:34:05;;;;;;;0.82;0.82;;;14.00;99.90;;;;;;4399371;32;20069;-66
2021/09/18 01:36:30;;;;;;;0.47;0.40;;;14.00;99.90;;;;;;4388700;32;20524;-66
2021/09/18 01:38:56;;;;;;;0.40;0.40;;;14.00;99.90;;;;;;4385889;32;20062;-66
2021/09/18 01:41:21;;;;;;;0.30;0.30;;;14.00;99.90;;;;;;4385890;32;20512;-66
2021/09/18 01:43:46;;;;;;;0.32;0.32;;;13.90;99.90;;;;;;4386557;32;20078;-66
2021/09/18 01:46:12;;;;;;;0.20;0.20;;;13.90;99.90;;;;;;4387207;32;20464;-67
2021/09/18 01:48:38;;;;;;;0.25;0.25;;;13.90;99.90;;;;;;4386892;32;20074;-67
2021/09/18 01:51:09;;;;;;;0.30;0.30;;;13.90;99.90;;;;;;4386888;32;20121;-66
2021/09/18 01:53:34;;;;;;;0.20;0.20;;;14.00;99.90;;;;;;4386567;32;20070;-67
2021/09/18 01:56:00;;;;;;;15.32;0.50;;;14.00;99.90;;;;;;4386350;32;20121;-66
2021/09/18 01:58:25;;;;;;;0.30;0.30;;;13.90;99.90;;;;;;4397728;32;20078;-66
2021/09/18 02:00:55;;;;;;;0.50;0.40;;;13.90;99.90;;;;;;4401172;32;20066;-66
2021/09/18 02:03:21;;;;;;;0.30;0.30;;;13.90;99.90;;;;;;4387762;32;20499;-67
2021/09/18 02:05:47;;;;;;;0.30;0.30;;;13.80;99.90;;;;;;4387920;32;20073;-66
2021/09/18 02:08:13;;;;;;;0.40;0.40;;;13.80;99.90;;;;;;4401335;32;20062;-66
2021/09/18 02:10:39;;;;;;;0.40;0.40;;;13.90;99.90;;;;;;4387380;32;20578;-66
2021/09/18 02:13:10;;;;;;;0.30;0.30;;;13.90;99.90;;;;;;4401950;32;20070;-65
2021/09/18 02:15:36;;;;;;;0.55;0.52;;;13.90;99.90;;;;;;4387171;32;20074;-66
2021/09/18 02:18:04;;;;;;;0.30;0.30;;;13.80;99.90;;;;;;4387050;32;20591;-65
2021/09/18 02:20:30;;;;;;;0.30;0.30;;;13.80;99.90;;;;;;4401413;32;20074;-66
2021/09/18 02:22:56;;;;;;;0.40;0.40;;;13.90;99.90;;;;;;4399991;32;20079;-67
2021/09/18 02:25:23;;;;;;;0.30;0.30;;;13.80;99.90;;;;;;4400437;32;20087;-66
2021/09/18 02:27:49;;;;;;;0.32;0.32;;;13.90;99.90;;;;;;4399605;32;20066;-66
2021/09/18 02:30:18;;;;;;;0.85;0.60;;;13.90;99.90;;;;;;4386032;32;20124;-66
2021/09/18 02:32:45;;;;;;;0.20;0.20;;;13.80;99.90;;;;;;4375414;32;20564;-66
2021/09/18 02:35:13;;;;;;;0.22;0.22;;;13.80;99.90;;;;;;4371427;32;20508;-66
2021/09/18 02:37:39;;;;;;;0.20;0.20;;;13.80;99.90;;;;;;4372764;32;20410;-66
2021/09/18 02:40:08;;;;;;;0.40;0.40;;;13.90;99.90;;;;;;4372258;32;20062;-66
2021/09/18 02:42:35;;;;;;;0.30;0.30;;;13.80;99.90;;;;;;4372735;32;20199;-65
2021/09/18 02:45:00;;;;;;;0.30;0.30;;;13.80;99.90;;;;;;4372903;32;20515;-66
2021/09/18 02:47:26;;;;;;;0.30;0.30;;;13.80;99.90;;;;;;4386325;32;20058;-66
2021/09/18 02:49:51;;;;;;;0.20;0.20;;;13.80;99.90;;;;;;4384636;32;20157;-66
2021/09/18 02:52:16;;;;;;;0.30;0.30;;;13.80;99.90;;;;;;4386050;32;20066;-66
2021/09/18 02:54:42;;;;;;;0.20;0.20;;;13.80;99.90;;;;;;4385676;32;20078;-66
2021/09/18 02:57:08;;;;;;;0.20;0.20;;;13.70;99.90;;;;;;4389025;32;20065;-66
2021/09/18 02:59:33;;;;;;;0.22;0.22;;;13.80;99.90;;;;;;4400571;32;20077;-66
2021/09/18 03:01:59;;;;;;;0.30;0.30;;;13.80;99.90;;;;;;4400698;32;20086;-66
2021/09/18 03:04:24;;;;;;;0.30;0.30;;;13.70;99.90;;;;;;4399649;32;20082;-66
2021/09/18 03:06:50;;;;;;;0.30;0.30;;;13.80;99.90;;;;;;4400528;32;20057;-66
2021/09/18 03:09:15;;;;;;;0.20;0.20;;;13.80;99.90;;;;;;4386608;32;20122;-66
2021/09/18 03:11:41;;;;;;;0.37;0.37;;;13.70;99.90;;;;;;4399802;32;20078;-66
2021/09/18 03:14:06;;;;;;;0.50;0.50;;;13.80;99.90;;;;;;4400543;32;20416;-66
2021/09/18 03:16:31;;;;;;;0.70;0.43;;;13.70;99.90;;;;;;4400736;32;20085;-65
2021/09/18 03:18:57;;;;;;;0.30;0.30;;;13.80;99.90;;;;;;4387134;32;20162;-66
2021/09/18 03:21:22;;;;;;;0.30;0.30;;;13.80;99.90;;;;;;4400669;32;20073;-65
2021/09/18 03:23:48;;;;;;;0.30;0.30;;;13.80;99.90;;;;;;4386757;32;20084;-65
2021/09/18 03:26:13;;;;;;;0.17;0.17;;;13.70;99.90;;;;;;4401008;32;20078;-66
2021/09/18 03:28:39;;;;;;;0.20;0.20;;;13.70;99.90;;;;;;4398505;32;20497;-66
2021/09/18 03:31:04;;;;;;;0.20;0.20;;;13.70;99.90;;;;;;4400155;32;20113;-65
2021/09/18 03:33:30;;;;;;;0.30;0.30;;;13.70;99.90;;;;;;4399964;32;20077;-66
2021/09/18 03:35:55;;;;;;;0.40;0.35;;;13.60;99.90;;;;;;4394588;32;20443;-65
2021/09/18 03:38:21;;;;;;;0.28;0.28;;;13.70;99.90;;;;;;4385272;32;20476;-66
2021/09/18 03:40:46;;;;;;;0.80;0.80;;;13.70;99.90;;;;;;4370427;32;20070;-66
2021/09/18 03:43:12;;;;;;;0.37;0.37;;;13.80;99.90;;;;;;4384992;32;20137;-66
2021/09/18 03:45:37;;;;;;;0.32;0.32;;;13.80;99.90;;;;;;4385376;32;20134;-66
2021/09/18 03:48:03;;;;;;;0.50;0.50;;;13.80;99.90;;;;;;4385759;32;20091;-66
2021/09/18 03:50:29;;;;;;;0.40;0.40;;;13.80;99.90;;;;;;4385089;32;20071;-66
2021/09/18 03:52:54;;;;;;;0.28;0.28;;;13.80;99.90;;;;;;4384209;32;20079;-66
2021/09/18 03:55:20;;;;;;;0.40;0.40;;;13.70;99.90;;;;;;4384908;32;20086;-65
2021/09/18 03:57:45;;;;;;;0.20;0.20;;;13.80;99.90;;;;;;4392405;32;20082;-65
2021/09/18 04:00:11;;;;;;;0.30;0.30;;;13.80;99.90;;;;;;4399722;32;20075;-65
2021/09/18 04:02:37;;;;;;;0.30;0.30;;;13.80;99.90;;;;;;4399077;32;20131;-66
2021/09/18 04:05:02;;;;;;;1.27;0.82;;;13.80;99.90;;;;;;4386025;32;20124;-66
2021/09/18 04:07:28;;;;;;;0.85;0.80;;;13.80;99.90;;;;;;4399888;32;20460;-67
2021/09/18 04:09:53;;;;;;;0.55;0.30;;;13.80;99.90;;;;;;4400397;32;20063;-65
2021/09/18 04:12:19;;;;;;;0.43;0.35;;;13.80;99.90;;;;;;4399991;32;20449;-66
2021/09/18 04:14:44;;;;;;;0.30;0.30;;;13.80;99.90;;;;;;4400424;32;20131;-66
2021/09/18 04:17:10;;;;;;;0.35;0.35;;;13.80;99.90;;;;;;4386946;32;20073;-65
2021/09/18 04:19:35;;;;;;;0.30;0.30;;;13.90;99.90;;;;;;4399953;32;20075;-66
2021/09/18 04:22:01;;;;;;;0.20;0.20;;;13.90;99.90;;;;;;4399630;32;20069;-66
2021/09/18 04:24:27;;;;;;;0.20;0.20;;;13.80;99.90;;;;;;4399698;32;20066;-66
2021/09/18 04:26:53;;;;;;;0.30;0.30;;;13.80;99.90;;;;;;4386477;32;20090;-66
2021/09/18 04:29:18;;;;;;;0.30;0.30;;;13.80;99.90;;;;;;4384799;32;20182;-66
2021/09/18 04:31:44;;;;;;;0.20;0.20;;;13.80;99.90;;;;;;4385020;32;20061;-66
2021/09/18 04:34:09;;;;;;;0.22;0.22;;;13.80;99.90;;;;;;4384566;32;20811;-66
2021/09/18 04:36:35;;;;;;;0.30;0.30;;;13.70;99.90;;;;;;4384019;32;20342;-66
2021/09/18 04:39:00;;;;;;;0.30;0.30;;;13.60;99.90;;;;;;4384216;32;20511;-67
2021/09/18 04:41:27;;;;;;;0.30;0.30;;;13.60;99.90;;;;;;4383183;32;20070;-66
2021/09/18 04:43:53;;;;;;;0.95;0.50;;;13.60;99.90;;;;;;4384248;32;20062;-66
2021/09/18 04:46:19;;;;;;;0.37;0.37;;;13.50;99.90;;;;;;4384483;32;20531;-66
2021/09/18 04:48:44;;;;;;;0.35;0.35;;;13.50;99.90;;;;;;4385168;32;20558;-66
2021/09/18 04:51:10;;;;;;;1.85;0.45;;;13.60;99.90;;;;;;4384048;32;20075;-66
2021/09/18 04:53:36;;;;;;;0.37;0.37;;;13.50;99.90;;;;;;4370129;32;20075;-66
2021/09/18 04:56:01;;;;;;;0.35;0.35;;;13.50;99.90;;;;;;4384633;32;20126;-65
2021/09/18 04:58:27;;;;;;;0.32;0.32;;;13.60;99.90;;;;;;4396327;32;20078;-66
2021/09/18 05:00:52;;;;;;;0.30;0.30;;;13.50;99.90;;;;;;4399528;32;20527;-65
2021/09/18 05:03:18;;;;;;;0.50;0.50;;;13.40;99.90;;;;;;4399330;32;20086;-67
2021/09/18 05:05:43;;;;;;;0.30;0.30;;;13.40;99.90;;;;;;4399842;32;20570;-66
2021/09/18 05:08:10;;;;;;;3.08;0.50;;;13.40;99.90;;;;;;4398168;32;20604;-65
2021/09/18 05:10:35;;;;;;;0.30;0.30;;;13.40;99.90;;;;;;4385512;32;20109;-65
2021/09/18 05:13:02;;;;;;;0.35;0.35;;;13.40;99.90;;;;;;4399431;32;20511;-66
2021/09/18 05:15:28;;;;;;;0.30;0.30;;;13.40;99.90;;;;;;4399334;32;20591;-65
2021/09/18 05:17:54;;;;;;;0.95;0.70;;;13.40;99.90;;;;;;4384415;32;20117;-65
2021/09/18 05:20:19;;;;;;;0.60;0.60;;;13.40;99.90;;;;;;4397977;32;20094;-66
2021/09/18 05:22:45;;;;;;;0.20;0.20;;;13.40;99.90;;;;;;4398226;32;20480;-66
2021/09/18 05:25:10;;;;;;;0.28;0.28;;;13.40;99.90;;;;;;4399324;32;20082;-66
2021/09/18 05:27:36;;;;;;;0.22;0.22;;;13.40;99.90;;;;;;4384113;32;20058;-66
2021/09/18 05:30:04;;;;;;;0.10;0.10;;;13.40;99.90;;;;;;4398199;32;20137;-66
2021/09/18 05:32:30;;;;;;;0.85;0.50;;;13.50;99.90;;;;;;4385645;32;20085;-66
2021/09/18 05:34:55;;;;;;;0.37;0.37;;;13.50;99.90;;;;;;4399213;32;20125;-65
2021/09/18 05:37:21;;;;;;;1.37;0.50;;;13.40;99.90;;;;;;4383737;32;20058;-66
2021/09/18 05:39:46;;;;;;;0.45;0.40;;;13.40;99.90;;;;;;4383243;32;20124;-66
2021/09/18 05:42:12;;;;;;;0.30;0.30;;;13.40;99.90;;;;;;4382223;32;20109;-67
2021/09/18 05:44:37;;;;;;;0.40;0.40;;;13.40;99.90;;;;;;4382460;32;20088;-66
2021/09/18 05:47:03;;;;;;;0.40;0.40;;;13.30;99.90;;;;;;4370598;32;20062;-65
2021/09/18 05:49:28;;;;;;;0.22;0.22;;;13.30;99.90;;;;;;4369636;32;20125;-66
2021/09/18 05:51:54;;;;;;;0.30;0.30;;;13.40;99.90;;;;;;4383094;32;20078;-66
2021/09/18 05:54:19;;;;;;;0.28;0.28;;;13.40;99.90;;;;;;4383750;32;20063;-66
2021/09/18 05:56:45;;;;;;;0.70;0.65;;;13.50;99.90;;;;;;4385087;32;20105;-67
2021/09/18 05:59:10;;;;;;;10.65;2.67;;;13.50;99.90;;;;;;4397476;32;20078;-66
2021/09/18 06:01:36;;;;;;;0.52;0.35;;;13.60;99.90;;;;;;4397656;32;20065;-65
2021/09/18 06:04:01;;;;;;;0.30;0.30;;;13.50;99.90;;;;;;4398833;32;20503;-64
2021/09/18 06:06:27;;;;;;;0.30;0.30;;;13.50;99.90;;;;;;4398765;32;20244;-66
2021/09/18 06:08:52;;;;;;;0.20;0.20;;;13.50;99.90;;;;;;4397977;32;20077;-66
2021/09/18 06:11:18;;;;;;;0.40;0.40;;;13.50;99.90;;;;;;4384315;32;20062;-66
2021/09/18 06:13:43;;;;;;;0.30;0.30;;;13.50;99.90;;;;;;4399026;32;20078;-66
2021/09/18 06:16:09;;;;;;;0.52;0.50;;;13.60;99.90;;;;;;4398349;32;20078;-66
2021/09/18 06:18:34;;;;;;;0.35;0.35;;;13.50;99.90;;;;;;4397939;32;20431;-67
2021/09/18 06:21:03;;;;;;;0.37;0.37;;;13.50;99.90;;;;;;4397938;32;20125;-66
2021/09/18 06:23:29;;;;;;;0.30;0.30;;;13.60;99.90;;;;;;4394361;32;95511;-66
2021/09/18 06:25:55;;;;;;;0.32;0.32;;;13.50;99.90;;;;;;4399351;32;20142;-65
2021/09/18 06:28:20;;;;;;;0.35;0.35;;;13.60;99.90;;;;;;4385941;32;20519;-66
2021/09/18 06:30:46;;;;;;;0.30;0.30;;;13.50;99.90;;;;;;4401143;32;20069;-66
2021/09/18 06:33:12;;;;;;;0.40;0.40;;;13.60;99.90;;;;;;4400541;32;20078;-65
2021/09/18 06:35:37;;;;;;;0.37;0.37;;;13.60;99.90;;;;;;4395989;32;20055;-65
2021/09/18 06:38:03;;;;;;;0.30;0.30;;;13.60;99.90;;;;;;4386631;32;20058;-65
2021/09/18 06:40:29;;;;;;;0.30;0.30;;;13.60;99.90;;;;;;4384461;32;20487;-66
2021/09/18 06:42:54;;;;;;;0.40;0.40;;;13.60;99.90;;;;;;4386306;32;20062;-65
2021/09/18 06:45:20;;;;;;;0.30;0.30;;;13.70;99.90;;;;;;4385837;32;20488;-65
2021/09/18 06:47:46;;;;;;;2.50;1.05;;;13.70;99.90;;;;;;4372324;32;20051;-66
2021/09/18 06:50:12;;;;;;;0.40;0.40;;;13.70;99.90;;;;;;4384453;32;20062;-67
2021/09/18 06:52:38;;;;;;;0.30;0.30;;;13.70;99.90;;;;;;4372318;32;20062;-66
2021/09/18 06:55:04;;;;;;;0.50;0.40;;;13.70;99.90;;;;;;4385993;32;20528;-67
2021/09/18 06:57:32;;;;;;;0.40;0.40;;;13.80;99.90;;;;;;4390739;32;20062;-67
2021/09/18 06:59:57;;;;;;;0.68;0.68;;;13.80;99.90;;;;;;4399573;32;20070;-66
2021/09/18 07:02:23;;;;;;;0.40;0.40;;;13.90;99.90;;;;;;4385996;32;20085;-66
2021/09/18 07:04:48;;;;;;;0.57;0.57;;;13.80;99.90;;;;;;4400255;32;20078;-66
2021/09/18 07:07:13;;;;;;;0.30;0.30;;;13.80;99.90;;;;;;4399830;32;20082;-66
2021/09/18 07:09:39;;;;;;;0.40;0.40;;;13.90;99.90;;;;;;4400556;32;20165;-66
2021/09/18 07:12:05;;;;;;;1.00;0.70;;;13.90;99.90;;;;;;4399949;32;20077;-64
2021/09/18 07:14:30;;;;;;;0.47;0.47;;;14.00;99.90;;;;;;4400343;32;20484;-66
2021/09/18 07:16:56;;;;;;;0.32;0.32;;;14.00;99.90;;;;;;4400797;32;20419;-66
2021/09/18 07:19:21;;;;;;;0.37;0.35;;;14.10;99.90;;;;;;4400762;32;20077;-66
2021/09/18 07:21:47;;;;;;;0.28;0.28;;;14.10;99.90;;;;;;4400541;32;20066;-66
2021/09/18 07:24:12;;;;;;;0.50;0.50;;;14.10;99.90;;;;;;4399879;32;20121;-67
2021/09/18 07:26:38;;;;;;;0.80;0.52;;;14.10;99.90;;;;;;4399897;32;20086;-64
2021/09/18 07:29:04;;;;;;;1.15;1.05;;;14.20;99.90;;;;;;4399022;32;20503;-66
2021/09/18 07:31:30;;;;;;;0.40;0.40;;;14.20;99.90;;;;;;4385212;32;20078;-66
2021/09/18 07:33:56;;;;;;;0.88;0.65;;;14.20;99.90;;;;;;4386798;32;20055;-66
2021/09/18 07:36:22;;;;;;;6.47;0.55;;;14.20;99.90;;;;;;4377089;32;20515;-66
2021/09/18 07:38:48;;;;;;;0.30;0.30;;;14.30;99.90;;;;;;4384536;32;20054;-66
2021/09/18 07:41:15;;;;;;;0.52;0.52;;;14.30;99.90;;;;;;4384611;32;20147;-66
2021/09/18 07:43:42;;;;;;;1.15;1.05;;;14.30;99.90;;;;;;4384823;32;20121;-66
2021/09/18 07:46:08;;;;;;;0.40;0.40;;;14.40;99.90;;;;;;4371300;32;20230;-66
2021/09/18 07:48:33;;;;;;;0.30;0.30;;;14.40;99.90;;;;;;4384272;32;20078;-66
2021/09/18 07:50:59;;;;;;;0.30;0.30;;;14.50;99.90;;;;;;4384661;32;20118;-66
2021/09/18 07:53:24;;;;;;;0.30;0.30;;;14.60;99.90;;;;;;4384658;32;20499;-66
2021/09/18 07:55:50;;;;;;;0.47;0.43;;;14.60;99.90;;;;;;4384473;32;20070;-66
2021/09/18 07:58:16;;;;;;;0.40;0.40;;;14.60;99.90;;;;;;4394370;32;20066;-66
2021/09/18 08:00:43;;;;;;;3.72;0.50;;;14.70;99.90;;;;;;4385891;32;20484;-66
2021/09/18 08:03:09;;;;;;;0.68;0.52;;;14.80;99.90;;;;;;4399681;32;20058;-66
2021/09/18 08:05:34;;;;;;;0.55;0.55;;;14.90;99.90;;;;;;4399236;32;20070;-66
2021/09/18 08:08:01;;;;;;;0.62;0.62;;;15.00;99.90;;;;;;4399802;32;20053;-66
2021/09/18 08:10:26;;;;;;;0.43;0.40;;;15.20;99.90;;;;;;4399580;32;20536;-66
2021/09/18 08:12:52;;;;;;;0.40;0.40;;;15.30;99.90;;;;;;4385664;32;20075;-66
2021/09/18 08:15:18;;;;;;;0.60;0.40;;;15.50;99.90;;;;;;4398833;32;20082;-66
2021/09/18 08:17:46;;;;;;;0.50;0.50;;;15.50;99.90;;;;;;4386819;32;20082;-66
2021/09/18 08:20:13;;;;;;;0.40;0.40;;;15.60;99.90;;;;;;4386083;32;20062;-66
2021/09/18 08:22:39;;;;;;;0.40;0.40;;;15.60;99.90;;;;;;4385482;32;20094;-66
2021/09/18 08:25:07;;;;;;;0.50;0.50;;;15.70;99.90;;;;;;4386328;32;20096;-66
2021/09/18 08:27:33;;;;;;;0.30;0.30;;;15.80;99.90;;;;;;4384512;32;20090;-66
2021/09/18 08:29:58;;;;;;;0.30;0.30;;;15.90;99.90;;;;;;4385827;32;20391;-66
2021/09/18 08:32:24;;;;;;;0.32;0.32;;;16.00;99.90;;;;;;4385179;32;20079;-66
2021/09/18 08:34:49;;;;;;;0.30;0.30;;;16.10;99.90;;;;;;4398988;32;20077;-64
2021/09/18 08:37:15;;;;;;;0.30;0.30;;;16.30;99.90;;;;;;4384506;32;20059;-64
2021/09/18 08:39:40;;;;;;;0.30;0.30;;;16.30;99.90;;;;;;4383238;32;20500;-64
2021/09/18 08:42:09;;;;;;;0.65;0.65;;;16.30;99.90;;;;;;4383002;32;20441;-65
2021/09/18 08:44:35;;;;;;;0.37;0.37;;;16.40;99.90;;;;;;4383849;32;20066;-64
2021/09/18 08:47:01;;;;;;;0.30;0.30;;;16.50;99.90;;;;;;4369662;32;20389;-65
2021/09/18 08:49:28;;;;;;;0.40;0.40;;;16.50;99.90;;;;;;4384116;32;20535;-65
2021/09/18 08:51:53;;;;;;;0.55;0.55;;;16.60;99.90;;;;;;4371576;32;20070;-65
2021/09/18 08:54:19;;;;;;;0.45;0.45;;;16.70;99.90;;;;;;4382897;32;20121;-65
2021/09/18 08:56:45;;;;;;;0.30;0.30;;;16.80;99.90;;;;;;4384536;32;20058;-65
2021/09/18 08:59:10;;;;;;;0.82;0.82;;;16.90;99.90;;;;;;4398609;32;20074;-65
2021/09/18 09:01:36;;;;;;;0.30;0.30;;;16.90;99.90;;;;;;4399078;32;20062;-65
2021/09/18 09:04:05;;;;;;;0.50;0.50;;;17.00;99.90;;;;;;4384631;32;20117;-65
2021/09/18 09:06:50;;;;;;;0.40;0.40;;;17.00;99.90;;;;;;4398662;32;20259;-65
2021/09/18 09:09:16;;;;;;;0.30;0.30;;;17.00;99.90;;;;;;4399620;32;20062;-65
2021/09/18 09:11:53;;;;;;;0.30;0.30;;;17.00;99.90;;;;;;4398111;32;20511;-65
2021/09/18 09:14:19;;;;;;;0.30;0.30;;;16.90;99.90;;;;;;4398765;32;20113;-65
2021/09/18 09:17:05;;;;;;;0.30;0.30;;;16.90;99.90;;;;;;4398680;32;20082;-65
2021/09/18 09:19:39;;;;;;;0.40;0.40;;;16.90;99.90;;;;;;4385399;32;20518;-65
2021/09/18 09:22:04;;;;;;;0.30;0.30;;;16.90;99.90;;;;;;4386487;32;20558;-65
2021/09/18 09:24:30;;;;;;;0.50;0.50;;;16.90;99.90;;;;;;4385098;32;20069;-65
2021/09/18 09:27:13;;;;;;;0.43;0.37;;;17.00;99.90;;;;;;4375199;32;20082;-65
2021/09/18 09:29:49;;;;;;;0.30;0.30;;;17.20;99.90;;;;;;4382806;32;20106;-65
2021/09/18 09:32:33;;;;;;;0.40;0.40;;;17.40;99.90;;;;;;4383344;32;20055;-65
2021/09/18 09:35:03;;;;;;;0.35;0.35;;;17.70;99.90;;;;;;4383820;32;20066;-65
2021/09/18 09:37:28;;;;;;;0.30;0.30;;;17.90;99.90;;;;;;4355421;32;20518;-65
2021/09/18 09:39:57;;;;;;;1.75;0.73;;;17.90;99.90;;;;;;4367904;32;20063;-65
2021/09/18 09:42:29;;;;;;;0.30;0.30;;;17.90;99.90;;;;;;4368459;32;20062;-65
2021/09/18 09:45:12;;;;;;;0.30;0.30;;;17.70;99.90;;;;;;4368883;32;20063;-65
2021/09/18 09:47:38;;;;;;;0.28;0.28;;;17.70;99.90;;;;;;4355090;32;20062;-65
2021/09/18 09:50:04;;;;;;;0.30;0.30;;;17.60;99.90;;;;;;4367674;32;20170;-65
2021/09/18 09:52:32;;;;;;;0.35;0.35;;;17.40;99.90;;;;;;4368687;32;20547;-65
2021/09/18 09:55:08;;;;;;;3.42;0.95;;;17.10;99.90;;;;;;4367679;32;20474;-65
2021/09/18 09:57:33;;;;;;;0.40;0.40;;;16.80;99.90;;;;;;4381768;32;20074;-65
2021/09/18 10:00:01;;;;;;;0.30;0.30;;;16.70;99.90;;;;;;4398205;32;20065;-65
2021/09/18 10:02:27;;;;;;;0.30;0.30;;;16.60;99.90;;;;;;4387243;32;20071;-65
2021/09/18 10:04:53;;;;;;;0.20;0.20;;;16.50;99.90;;;;;;4401067;32;20414;-65
2021/09/18 10:07:19;;;;;;;0.35;0.35;;;16.50;99.90;;;;;;4387971;32;20104;-65
2021/09/18 10:09:47;;;;;;;0.30;0.30;;;16.50;99.90;;;;;;4386385;32;20062;-65
2021/09/18 10:12:14;;;;;;;0.40;0.40;;;16.60;99.90;;;;;;4387039;32;20532;-65
2021/09/18 10:14:45;;;;;;;0.30;0.30;;;16.70;99.90;;;;;;4387895;32;20074;-65
2021/09/18 10:17:10;;;;;;;0.30;0.30;;;16.90;99.90;;;;;;4388526;32;20062;-65
2021/09/18 10:23:20;;;;;;;0.30;0.30;;;17.10;99.90;;;;;;4400256;32;20561;-65
2021/09/18 10:24:51;;;;;;;0.30;0.30;;;17.20;99.90;;;;;;4388287;32;20090;-65
2021/09/18 10:27:21;;;;;;;0.30;0.30;;;17.50;99.90;;;;;;4400270;32;20126;-65
2021/09/18 10:29:48;;;;;;;0.25;0.25;;;17.70;99.90;;;;;;4386602;32;20087;-65
2021/09/18 10:32:14;;;;;;;0.25;0.25;;;17.80;99.90;;;;;;4399930;32;20147;-65
2021/09/18 10:34:40;;;;;;;1.45;0.40;;;18.00;99.90;;;;;;4400799;32;20058;-65
2021/09/18 10:37:06;;;;;;;0.32;0.30;;;18.20;99.90;;;;;;4375068;32;20171;-65
2021/09/18 10:39:32;;;;;;;0.30;0.30;;;18.20;99.90;;;;;;4372563;32;20488;-65
2021/09/18 10:42:00;;;;;;;0.20;0.20;;;18.20;99.90;;;;;;4385152;32;20071;-65
2021/09/18 10:44:48;;;;;;;0.20;0.20;;;18.10;99.90;;;;;;4371329;32;20070;-66
2021/09/18 10:47:35;;;;;;;0.20;0.20;;;17.90;99.90;;;;;;4372122;32;20397;-66
2021/09/18 10:50:00;;;;;;;0.30;0.30;;;17.70;99.90;;;;;;4384673;32;20145;-66
2021/09/18 10:52:29;;;;;;;0.30;0.30;;;17.40;99.90;;;;;;4386051;32;20063;-65
2021/09/18 10:55:05;;;;;;;0.30;0.30;;;17.30;99.90;;;;;;4372749;32;20062;-66
2021/09/18 10:57:52;;;;;;;0.20;0.20;;;17.20;99.90;;;;;;4391852;32;20117;-66
2021/09/18 11:00:20;;;;;;;0.30;0.30;;;17.30;99.90;;;;;;4388332;32;20066;-66
2021/09/18 11:02:48;;;;;;;0.37;0.37;;;17.60;99.90;;;;;;4399883;32;20050;-67
2021/09/18 11:05:27;;;;;;;0.30;0.30;;;17.90;99.90;;;;;;4401348;32;20152;-66
2021/09/18 11:07:55;;;;;;;0.30;0.30;;;18.10;99.90;;;;;;4400197;32;20049;-67
2021/09/18 11:10:23;;;;;;;0.30;0.30;;;18.10;99.90;;;;;;4399639;32;20070;-67
2021/09/18 11:13:11;;;;;;;0.20;0.20;;;18.20;99.90;;;;;;4400922;32;20062;-66
2021/09/18 11:15:39;;;;;;;0.30;0.30;;;18.30;99.90;;;;;;4376413;32;20046;-67
2021/09/18 11:18:28;;;;;;;0.30;0.30;;;18.40;99.90;;;;;;4401604;32;20117;-66
2021/09/18 11:21:12;;;;;;;0.40;0.40;;;18.20;99.90;;;;;;4390015;32;20106;-66
2021/09/18 11:23:42;;;;;;;0.20;0.20;;;17.90;99.90;;;;;;4400538;32;20066;-67
2021/09/18 11:26:31;;;;;;;0.20;0.20;;;17.80;99.90;;;;;;4400200;32;20066;-66
2021/09/18 11:29:08;;;;;;;0.30;0.30;;;17.50;99.90;;;;;;4389411;32;20139;-67
2021/09/18 11:31:34;;;;;;;4.75;1.15;;;17.30;99.90;;;;;;4400000;32;20456;-67
2021/09/18 11:34:00;;;;;;;0.20;0.20;;;17.10;99.90;;;;;;4400665;32;20062;-67
2021/09/18 11:36:25;;;;;;;0.30;0.30;;;17.10;99.90;;;;;;4391773;32;20055;-66
2021/09/18 11:38:51;;;;;;;0.40;0.40;;;17.10;99.90;;;;;;4385264;32;20448;-66
2021/09/18 11:41:20;;;;;;;0.35;0.35;;;17.10;99.90;;;;;;4384960;32;20070;-67
2021/09/18 11:43:45;;;;;;;0.25;0.25;;;17.30;99.90;;;;;;4385421;32;20418;-68
2021/09/18 11:46:24;;;;;;;0.32;0.32;;;17.30;99.90;;;;;;4384174;32;20081;-66
2021/09/18 11:48:58;;;;;;;0.30;0.30;;;17.40;99.90;;;;;;4384769;32;20418;-67
2021/09/18 11:51:24;;;;;;;0.30;0.30;;;17.40;99.90;;;;;;4384186;32;20057;-67
2021/09/18 11:54:02;;;;;;;0.60;0.60;;;17.20;99.90;;;;;;4371173;32;20087;-67
2021/09/18 11:56:28;;;;;;;0.35;0.35;;;17.00;99.90;;;;;;4370277;32;20340;-68
2021/09/18 11:58:53;;;;;;;0.32;0.32;;;16.80;99.90;;;;;;4385665;32;20065;-67
2021/09/18 12:01:19;;;;;;;0.30;0.30;;;16.60;99.90;;;;;;4399894;32;20062;-66
2021/09/18 12:03:46;;;;;;;0.20;0.20;;;16.40;99.90;;;;;;4400366;32;20078;-66
2021/09/18 12:06:13;;;;;;;0.30;0.30;;;16.40;99.90;;;;;;4386430;32;20074;-65
2021/09/18 12:08:41;;;;;;;0.40;0.40;;;16.40;99.90;;;;;;4386610;32;20127;-67
2021/09/18 12:11:09;;;;;;;0.35;0.35;;;16.30;99.90;;;;;;4384952;32;20082;-67
2021/09/18 12:13:40;;;;;;;0.30;0.30;;;16.20;99.90;;;;;;4400323;32;20073;-66
2021/09/18 12:16:06;;;;;;;0.40;0.40;;;16.30;99.90;;;;;;4385632;32;20127;-66
2021/09/18 12:18:34;;;;;;;0.30;0.30;;;16.40;99.90;;;;;;4386798;32;20094;-66
2021/09/18 12:21:03;;;;;;;0.40;0.40;;;16.40;99.90;;;;;;4399173;32;20050;-67
2021/09/18 12:23:31;;;;;;;0.32;0.32;;;16.50;99.90;;;;;;4384989;32;20419;-66
2021/09/18 12:25:59;;;;;;;0.30;0.30;;;16.60;99.90;;;;;;4385237;32;20070;-66
2021/09/18 12:28:26;;;;;;;0.50;0.50;;;16.70;99.90;;;;;;4397740;32;20440;-66
2021/09/18 12:30:51;;;;;;;0.35;0.35;;;16.90;99.90;;;;;;4398591;32;20133;-66
2021/09/18 12:33:27;;;;;;;0.30;0.30;;;16.90;99.90;;;;;;4386376;32;20188;-66
2021/09/18 12:36:00;;;;;;;0.40;0.40;;;16.90;99.90;;;;;;4381602;32;20066;-66
2021/09/18 12:38:29;;;;;;;0.40;0.40;;;16.90;99.90;;;;;;4372505;32;20066;-66
2021/09/18 12:41:00;;;;;;;0.50;0.50;;;17.00;99.90;;;;;;4370417;32;20121;-66
2021/09/18 12:43:25;;;;;;;0.40;0.40;;;17.00;99.90;;;;;;4384644;32;20384;-66
2021/09/18 12:46:01;;;;;;;4.25;0.77;;;17.00;99.90;;;;;;4384646;32;20050;-66
2021/09/18 12:48:27;;;;;;;6.80;0.50;;;16.90;99.90;;;;;;4371419;32;20077;-65
2021/09/18 12:50:58;;;;;;;0.32;0.32;;;17.00;99.90;;;;;;4384062;32;20075;-66